sensor_id;sensor_type;location;lat;lon;timestamp;P1;durP1;ratioP1;P2;durP2;ratioP2
78664;SDS011;67981;51.022;-2.870;2023-12-22T00:01:53;6.18;;;1.40;;
78664;SDS011;67981;51.022;-2.870;2023-12-22T00:04:18;5.43;;;1.20;;
78664;SDS011;67981;51.022;-2.870;2023-12-22T00:06:43;5.43;;;1.65;;
78664;SDS011;67981;51.022;-2.870;2023-12-22T00:09:09;7.53;;;0.98;;
78664;SDS011;67981;51.022;-2.870;2023-12-22T00:11:35;4.32;;;0.93;;
78664;SDS011;67981;51.022;-2.870;2023-12-22T00:14:00;0.65;;;0.50;;
78664;SDS011;67981;51.022;-2.870;2023-12-22T00:16:26;3.30;;;1.10;;
78664;SDS011;67981;51.022;-2.870;2023-12-22T00:18:51;4.20;;;0.90;;
78664;SDS011;67981;51.022;-2.870;2023-12-22T00:21:17;8.43;;;1.15;;
78664;SDS011;67981;51.022;-2.870;2023-12-22T00:23:42;2.60;;;0.82;;
78664;SDS011;67981;51.022;-2.870;2023-12-22T00:26:08;16.42;;;1.25;;
78664;SDS011;67981;51.022;-2.870;2023-12-22T00:28:33;5.55;;;1.52;;
78664;SDS011;67981;51.022;-2.870;2023-12-22T00:30:59;2.90;;;0.88;;
78664;SDS011;67981;51.022;-2.870;2023-12-22T00:33:25;3.92;;;1.65;;
78664;SDS011;67981;51.022;-2.870;2023-12-22T00:35:51;5.85;;;1.15;;
78664;SDS011;67981;51.022;-2.870;2023-12-22T00:38:16;5.57;;;1.13;;
78664;SDS011;67981;51.022;-2.870;2023-12-22T00:40:42;2.95;;;1.30;;
78664;SDS011;67981;51.022;-2.870;2023-12-22T00:43:07;2.17;;;1.48;;
78664;SDS011;67981;51.022;-2.870;2023-12-22T00:45:33;3.20;;;1.27;;
78664;SDS011;67981;51.022;-2.870;2023-12-22T00:47:58;8.43;;;1.83;;
78664;SDS011;67981;51.022;-2.870;2023-12-22T00:50:23;4.45;;;1.02;;
78664;SDS011;67981;51.022;-2.870;2023-12-22T00:52:49;5.53;;;1.40;;
78664;SDS011;67981;51.022;-2.870;2023-12-22T00:55:14;4.90;;;1.10;;
78664;SDS011;67981;51.022;-2.870;2023-12-22T00:57:40;2.78;;;1.02;;
78664;SDS011;67981;51.022;-2.870;2023-12-22T01:00:05;4.68;;;1.10;;
78664;SDS011;67981;51.022;-2.870;2023-12-22T01:02:35;1.80;;;1.02;;
78664;SDS011;67981;51.022;-2.870;2023-12-22T01:05:01;1.70;;;0.90;;
78664;SDS011;67981;51.022;-2.870;2023-12-22T01:07:26;3.00;;;1.33;;
78664;SDS011;67981;51.022;-2.870;2023-12-22T01:09:52;4.97;;;1.10;;
78664;SDS011;67981;51.022;-2.870;2023-12-22T01:12:17;4.88;;;1.02;;
78664;SDS011;67981;51.022;-2.870;2023-12-22T01:14:43;3.30;;;1.10;;
78664;SDS011;67981;51.022;-2.870;2023-12-22T01:17:10;8.20;;;1.33;;
78664;SDS011;67981;51.022;-2.870;2023-12-22T01:19:36;3.92;;;1.23;;
78664;SDS011;67981;51.022;-2.870;2023-12-22T01:22:01;5.25;;;1.20;;
78664;SDS011;67981;51.022;-2.870;2023-12-22T01:24:27;4.72;;;0.82;;
78664;SDS011;67981;51.022;-2.870;2023-12-22T01:26:52;2.10;;;0.80;;
78664;SDS011;67981;51.022;-2.870;2023-12-22T01:29:18;2.15;;;0.85;;
78664;SDS011;67981;51.022;-2.870;2023-12-22T01:31:43;2.17;;;0.80;;
78664;SDS011;67981;51.022;-2.870;2023-12-22T01:34:09;3.38;;;0.90;;
78664;SDS011;67981;51.022;-2.870;2023-12-22T01:36:34;4.55;;;1.73;;
78664;SDS011;67981;51.022;-2.870;2023-12-22T01:39:00;2.42;;;0.73;;
78664;SDS011;67981;51.022;-2.870;2023-12-22T01:41:25;1.55;;;0.90;;
78664;SDS011;67981;51.022;-2.870;2023-12-22T01:43:51;5.68;;;0.85;;
78664;SDS011;67981;51.022;-2.870;2023-12-22T01:46:16;2.70;;;1.05;;
78664;SDS011;67981;51.022;-2.870;2023-12-22T01:48:42;0.60;;;0.50;;
78664;SDS011;67981;51.022;-2.870;2023-12-22T01:51:08;4.00;;;0.90;;
78664;SDS011;67981;51.022;-2.870;2023-12-22T01:53:33;1.65;;;0.82;;
78664;SDS011;67981;51.022;-2.870;2023-12-22T01:55:59;2.88;;;0.98;;
78664;SDS011;67981;51.022;-2.870;2023-12-22T01:58:27;2.15;;;0.68;;
78664;SDS011;67981;51.022;-2.870;2023-12-22T02:00:55;5.20;;;1.50;;
78664;SDS011;67981;51.022;-2.870;2023-12-22T02:03:21;3.63;;;1.00;;
78664;SDS011;67981;51.022;-2.870;2023-12-22T02:05:47;2.38;;;1.10;;
78664;SDS011;67981;51.022;-2.870;2023-12-22T02:08:13;4.22;;;0.85;;
78664;SDS011;67981;51.022;-2.870;2023-12-22T02:10:43;3.83;;;0.95;;
78664;SDS011;67981;51.022;-2.870;2023-12-22T02:13:08;2.60;;;0.80;;
78664;SDS011;67981;51.022;-2.870;2023-12-22T02:15:34;2.88;;;1.02;;
78664;SDS011;67981;51.022;-2.870;2023-12-22T02:18:20;3.22;;;1.00;;
78664;SDS011;67981;51.022;-2.870;2023-12-22T02:20:49;1.52;;;0.75;;
78664;SDS011;67981;51.022;-2.870;2023-12-22T02:23:15;1.25;;;0.63;;
78664;SDS011;67981;51.022;-2.870;2023-12-22T02:25:40;2.35;;;0.75;;
78664;SDS011;67981;51.022;-2.870;2023-12-22T02:28:09;0.63;;;0.52;;
78664;SDS011;67981;51.022;-2.870;2023-12-22T02:30:43;1.38;;;0.57;;
78664;SDS011;67981;51.022;-2.870;2023-12-22T02:33:12;0.90;;;0.68;;
78664;SDS011;67981;51.022;-2.870;2023-12-22T02:35:41;3.33;;;0.80;;
78664;SDS011;67981;51.022;-2.870;2023-12-22T02:38:09;3.88;;;0.90;;
78664;SDS011;67981;51.022;-2.870;2023-12-22T02:40:37;1.77;;;0.73;;
78664;SDS011;67981;51.022;-2.870;2023-12-22T02:43:03;1.48;;;0.60;;
78664;SDS011;67981;51.022;-2.870;2023-12-22T02:45:30;0.60;;;0.60;;
78664;SDS011;67981;51.022;-2.870;2023-12-22T02:47:57;2.45;;;0.90;;
78664;SDS011;67981;51.022;-2.870;2023-12-22T02:50:22;1.73;;;0.77;;
78664;SDS011;67981;51.022;-2.870;2023-12-22T02:52:48;1.90;;;0.47;;
78664;SDS011;67981;51.022;-2.870;2023-12-22T02:55:13;4.32;;;1.30;;
78664;SDS011;67981;51.022;-2.870;2023-12-22T02:57:39;2.22;;;1.15;;
78664;SDS011;67981;51.022;-2.870;2023-12-22T03:00:04;1.10;;;0.73;;
78664;SDS011;67981;51.022;-2.870;2023-12-22T03:02:30;2.42;;;0.68;;
78664;SDS011;67981;51.022;-2.870;2023-12-22T03:04:56;4.10;;;1.00;;
78664;SDS011;67981;51.022;-2.870;2023-12-22T03:07:21;1.55;;;0.77;;
78664;SDS011;67981;51.022;-2.870;2023-12-22T03:09:46;4.13;;;0.80;;
78664;SDS011;67981;51.022;-2.870;2023-12-22T03:12:12;3.17;;;0.77;;
78664;SDS011;67981;51.022;-2.870;2023-12-22T03:14:37;3.33;;;0.47;;
78664;SDS011;67981;51.022;-2.870;2023-12-22T03:17:04;3.88;;;1.63;;
78664;SDS011;67981;51.022;-2.870;2023-12-22T03:19:31;6.70;;;1.17;;
78664;SDS011;67981;51.022;-2.870;2023-12-22T03:21:57;1.33;;;0.40;;
78664;SDS011;67981;51.022;-2.870;2023-12-22T03:24:23;3.83;;;0.93;;
78664;SDS011;67981;51.022;-2.870;2023-12-22T03:26:49;3.35;;;1.23;;
78664;SDS011;67981;51.022;-2.870;2023-12-22T03:29:15;2.55;;;1.05;;
78664;SDS011;67981;51.022;-2.870;2023-12-22T03:31:41;3.40;;;0.95;;
78664;SDS011;67981;51.022;-2.870;2023-12-22T03:34:07;2.17;;;1.05;;
78664;SDS011;67981;51.022;-2.870;2023-12-22T03:36:32;6.72;;;0.90;;
78664;SDS011;67981;51.022;-2.870;2023-12-22T03:38:58;2.90;;;1.65;;
78664;SDS011;67981;51.022;-2.870;2023-12-22T03:41:23;4.60;;;1.08;;
78664;SDS011;67981;51.022;-2.870;2023-12-22T03:43:49;2.90;;;1.30;;
78664;SDS011;67981;51.022;-2.870;2023-12-22T03:46:14;5.10;;;0.93;;
78664;SDS011;67981;51.022;-2.870;2023-12-22T03:48:40;2.45;;;0.77;;
78664;SDS011;67981;51.022;-2.870;2023-12-22T03:51:05;5.55;;;1.27;;
78664;SDS011;67981;51.022;-2.870;2023-12-22T03:53:30;8.65;;;1.83;;
78664;SDS011;67981;51.022;-2.870;2023-12-22T03:55:56;2.53;;;1.00;;
78664;SDS011;67981;51.022;-2.870;2023-12-22T03:58:21;3.15;;;0.70;;
78664;SDS011;67981;51.022;-2.870;2023-12-22T04:00:47;3.40;;;0.80;;
78664;SDS011;67981;51.022;-2.870;2023-12-22T04:03:12;3.97;;;1.02;;
78664;SDS011;67981;51.022;-2.870;2023-12-22T04:05:38;6.53;;;0.88;;
78664;SDS011;67981;51.022;-2.870;2023-12-22T04:08:04;3.03;;;0.88;;
78664;SDS011;67981;51.022;-2.870;2023-12-22T04:10:30;3.83;;;0.73;;
78664;SDS011;67981;51.022;-2.870;2023-12-22T04:12:55;2.83;;;0.70;;
78664;SDS011;67981;51.022;-2.870;2023-12-22T04:15:21;5.57;;;0.85;;
78664;SDS011;67981;51.022;-2.870;2023-12-22T04:17:46;3.03;;;1.25;;
78664;SDS011;67981;51.022;-2.870;2023-12-22T04:20:12;5.93;;;1.35;;
78664;SDS011;67981;51.022;-2.870;2023-12-22T04:22:38;4.10;;;1.25;;
78664;SDS011;67981;51.022;-2.870;2023-12-22T04:25:04;6.38;;;1.38;;
78664;SDS011;67981;51.022;-2.870;2023-12-22T04:27:30;5.38;;;1.05;;
78664;SDS011;67981;51.022;-2.870;2023-12-22T04:29:56;4.47;;;1.02;;
78664;SDS011;67981;51.022;-2.870;2023-12-22T04:32:21;6.95;;;1.25;;
78664;SDS011;67981;51.022;-2.870;2023-12-22T04:34:47;3.50;;;1.80;;
78664;SDS011;67981;51.022;-2.870;2023-12-22T04:37:12;2.97;;;1.45;;
78664;SDS011;67981;51.022;-2.870;2023-12-22T04:39:37;7.05;;;1.20;;
78664;SDS011;67981;51.022;-2.870;2023-12-22T04:42:03;7.28;;;1.50;;
78664;SDS011;67981;51.022;-2.870;2023-12-22T04:44:28;7.70;;;1.88;;
78664;SDS011;67981;51.022;-2.870;2023-12-22T04:46:54;2.25;;;0.68;;
78664;SDS011;67981;51.022;-2.870;2023-12-22T04:49:19;7.40;;;1.83;;
78664;SDS011;67981;51.022;-2.870;2023-12-22T04:51:45;7.65;;;1.52;;
78664;SDS011;67981;51.022;-2.870;2023-12-22T04:54:10;3.45;;;1.05;;
78664;SDS011;67981;51.022;-2.870;2023-12-22T04:56:35;4.30;;;1.35;;
78664;SDS011;67981;51.022;-2.870;2023-12-22T04:59:01;4.38;;;1.23;;
78664;SDS011;67981;51.022;-2.870;2023-12-22T05:01:26;4.05;;;1.23;;
78664;SDS011;67981;51.022;-2.870;2023-12-22T05:03:52;2.92;;;1.10;;
78664;SDS011;67981;51.022;-2.870;2023-12-22T05:06:19;8.48;;;1.55;;
78664;SDS011;67981;51.022;-2.870;2023-12-22T05:08:44;9.10;;;2.95;;
78664;SDS011;67981;51.022;-2.870;2023-12-22T05:11:10;3.60;;;0.95;;
78664;SDS011;67981;51.022;-2.870;2023-12-22T05:13:35;3.38;;;1.00;;
78664;SDS011;67981;51.022;-2.870;2023-12-22T05:16:01;6.40;;;1.13;;
78664;SDS011;67981;51.022;-2.870;2023-12-22T05:18:27;6.45;;;1.05;;
78664;SDS011;67981;51.022;-2.870;2023-12-22T05:20:52;7.85;;;2.10;;
78664;SDS011;67981;51.022;-2.870;2023-12-22T05:23:18;5.05;;;1.67;;
78664;SDS011;67981;51.022;-2.870;2023-12-22T05:25:44;9.48;;;1.75;;
78664;SDS011;67981;51.022;-2.870;2023-12-22T05:28:09;7.03;;;2.25;;
78664;SDS011;67981;51.022;-2.870;2023-12-22T05:30:35;6.30;;;1.70;;
78664;SDS011;67981;51.022;-2.870;2023-12-22T05:33:00;6.55;;;1.60;;
78664;SDS011;67981;51.022;-2.870;2023-12-22T05:35:25;3.40;;;1.42;;
78664;SDS011;67981;51.022;-2.870;2023-12-22T05:37:51;4.07;;;1.40;;
78664;SDS011;67981;51.022;-2.870;2023-12-22T05:40:16;4.85;;;2.13;;
78664;SDS011;67981;51.022;-2.870;2023-12-22T05:42:42;7.00;;;1.52;;
78664;SDS011;67981;51.022;-2.870;2023-12-22T05:45:07;4.18;;;1.38;;
78664;SDS011;67981;51.022;-2.870;2023-12-22T05:47:34;3.85;;;1.55;;
78664;SDS011;67981;51.022;-2.870;2023-12-22T05:50:00;7.35;;;1.40;;
78664;SDS011;67981;51.022;-2.870;2023-12-22T05:52:25;7.03;;;2.03;;
78664;SDS011;67981;51.022;-2.870;2023-12-22T05:54:50;5.85;;;1.58;;
78664;SDS011;67981;51.022;-2.870;2023-12-22T05:57:16;7.57;;;2.22;;
78664;SDS011;67981;51.022;-2.870;2023-12-22T05:59:42;8.23;;;1.58;;
78664;SDS011;67981;51.022;-2.870;2023-12-22T06:02:07;9.25;;;1.77;;
78664;SDS011;67981;51.022;-2.870;2023-12-22T06:04:33;3.88;;;1.23;;
78664;SDS011;67981;51.022;-2.870;2023-12-22T06:06:59;6.93;;;2.17;;
78664;SDS011;67981;51.022;-2.870;2023-12-22T06:09:25;9.80;;;2.17;;
78664;SDS011;67981;51.022;-2.870;2023-12-22T06:11:50;9.98;;;2.13;;
78664;SDS011;67981;51.022;-2.870;2023-12-22T06:14:16;8.25;;;1.85;;
78664;SDS011;67981;51.022;-2.870;2023-12-22T06:16:41;13.27;;;1.95;;
78664;SDS011;67981;51.022;-2.870;2023-12-22T06:19:07;7.18;;;1.80;;
78664;SDS011;67981;51.022;-2.870;2023-12-22T06:21:33;8.73;;;2.47;;
78664;SDS011;67981;51.022;-2.870;2023-12-22T06:23:58;9.80;;;3.00;;
78664;SDS011;67981;51.022;-2.870;2023-12-22T06:26:23;9.80;;;2.65;;
78664;SDS011;67981;51.022;-2.870;2023-12-22T06:28:49;10.65;;;2.35;;
78664;SDS011;67981;51.022;-2.870;2023-12-22T06:31:18;10.32;;;2.85;;
78664;SDS011;67981;51.022;-2.870;2023-12-22T06:33:48;10.30;;;2.08;;
78664;SDS011;67981;51.022;-2.870;2023-12-22T06:36:18;8.73;;;1.77;;
78664;SDS011;67981;51.022;-2.870;2023-12-22T06:38:44;7.15;;;2.90;;
78664;SDS011;67981;51.022;-2.870;2023-12-22T06:41:18;10.27;;;2.35;;
78664;SDS011;67981;51.022;-2.870;2023-12-22T06:43:47;7.15;;;1.83;;
78664;SDS011;67981;51.022;-2.870;2023-12-22T06:46:16;12.15;;;2.85;;
78664;SDS011;67981;51.022;-2.870;2023-12-22T06:48:43;9.18;;;3.53;;
78664;SDS011;67981;51.022;-2.870;2023-12-22T06:51:18;7.45;;;2.42;;
78664;SDS011;67981;51.022;-2.870;2023-12-22T06:53:47;12.27;;;3.13;;
78664;SDS011;67981;51.022;-2.870;2023-12-22T06:56:15;11.77;;;2.60;;
78664;SDS011;67981;51.022;-2.870;2023-12-22T06:58:41;9.30;;;2.20;;
78664;SDS011;67981;51.022;-2.870;2023-12-22T07:01:06;9.55;;;2.50;;
78664;SDS011;67981;51.022;-2.870;2023-12-22T07:03:32;12.50;;;2.50;;
78664;SDS011;67981;51.022;-2.870;2023-12-22T07:05:57;6.97;;;1.98;;
78664;SDS011;67981;51.022;-2.870;2023-12-22T07:08:22;11.10;;;3.17;;
78664;SDS011;67981;51.022;-2.870;2023-12-22T07:10:48;5.78;;;2.10;;
78664;SDS011;67981;51.022;-2.870;2023-12-22T07:13:13;9.13;;;2.67;;
78664;SDS011;67981;51.022;-2.870;2023-12-22T07:15:39;7.70;;;2.38;;
78664;SDS011;67981;51.022;-2.870;2023-12-22T07:18:04;10.65;;;2.10;;
78664;SDS011;67981;51.022;-2.870;2023-12-22T07:20:30;10.75;;;1.85;;
78664;SDS011;67981;51.022;-2.870;2023-12-22T07:22:55;8.20;;;1.67;;
78664;SDS011;67981;51.022;-2.870;2023-12-22T07:25:21;8.05;;;2.03;;
78664;SDS011;67981;51.022;-2.870;2023-12-22T07:27:47;9.95;;;2.85;;
78664;SDS011;67981;51.022;-2.870;2023-12-22T07:30:12;9.55;;;2.20;;
78664;SDS011;67981;51.022;-2.870;2023-12-22T07:32:41;5.55;;;1.90;;
78664;SDS011;67981;51.022;-2.870;2023-12-22T07:35:09;8.18;;;1.95;;
78664;SDS011;67981;51.022;-2.870;2023-12-22T07:37:35;6.25;;;2.22;;
78664;SDS011;67981;51.022;-2.870;2023-12-22T07:40:00;7.40;;;2.45;;
78664;SDS011;67981;51.022;-2.870;2023-12-22T07:42:26;7.63;;;2.60;;
78664;SDS011;67981;51.022;-2.870;2023-12-22T07:44:51;5.85;;;1.30;;
78664;SDS011;67981;51.022;-2.870;2023-12-22T07:47:17;10.20;;;2.15;;
78664;SDS011;67981;51.022;-2.870;2023-12-22T07:49:42;5.50;;;2.03;;
78664;SDS011;67981;51.022;-2.870;2023-12-22T07:52:07;10.40;;;3.03;;
78664;SDS011;67981;51.022;-2.870;2023-12-22T07:54:33;9.07;;;2.50;;
78664;SDS011;67981;51.022;-2.870;2023-12-22T07:56:58;11.52;;;2.08;;
78664;SDS011;67981;51.022;-2.870;2023-12-22T07:59:24;16.13;;;2.67;;
78664;SDS011;67981;51.022;-2.870;2023-12-22T08:01:49;10.00;;;2.75;;
78664;SDS011;67981;51.022;-2.870;2023-12-22T08:04:15;8.48;;;2.20;;
78664;SDS011;67981;51.022;-2.870;2023-12-22T08:06:40;5.97;;;1.83;;
78664;SDS011;67981;51.022;-2.870;2023-12-22T08:09:05;11.40;;;2.10;;
78664;SDS011;67981;51.022;-2.870;2023-12-22T08:11:31;13.07;;;2.78;;
78664;SDS011;67981;51.022;-2.870;2023-12-22T08:13:56;10.13;;;3.55;;
78664;SDS011;67981;51.022;-2.870;2023-12-22T08:16:22;7.40;;;2.83;;
78664;SDS011;67981;51.022;-2.870;2023-12-22T08:18:47;15.05;;;2.42;;
78664;SDS011;67981;51.022;-2.870;2023-12-22T08:21:13;8.02;;;1.98;;
78664;SDS011;67981;51.022;-2.870;2023-12-22T08:23:39;8.15;;;2.10;;
78664;SDS011;67981;51.022;-2.870;2023-12-22T08:26:04;11.18;;;2.38;;
78664;SDS011;67981;51.022;-2.870;2023-12-22T08:28:29;12.20;;;2.33;;
78664;SDS011;67981;51.022;-2.870;2023-12-22T08:30:55;7.88;;;1.95;;
78664;SDS011;67981;51.022;-2.870;2023-12-22T08:33:20;11.88;;;3.80;;
78664;SDS011;67981;51.022;-2.870;2023-12-22T08:35:46;11.68;;;3.22;;
78664;SDS011;67981;51.022;-2.870;2023-12-22T08:38:11;15.93;;;2.58;;
78664;SDS011;67981;51.022;-2.870;2023-12-22T08:40:38;16.42;;;2.80;;
78664;SDS011;67981;51.022;-2.870;2023-12-22T08:43:03;11.20;;;2.65;;
78664;SDS011;67981;51.022;-2.870;2023-12-22T08:45:31;11.70;;;3.03;;
78664;SDS011;67981;51.022;-2.870;2023-12-22T08:47:58;13.38;;;3.55;;
78664;SDS011;67981;51.022;-2.870;2023-12-22T08:50:23;10.90;;;3.03;;
78664;SDS011;67981;51.022;-2.870;2023-12-22T08:52:49;11.15;;;2.53;;
78664;SDS011;67981;51.022;-2.870;2023-12-22T08:55:14;10.48;;;2.83;;
78664;SDS011;67981;51.022;-2.870;2023-12-22T08:57:41;13.05;;;2.83;;
78664;SDS011;67981;51.022;-2.870;2023-12-22T09:00:06;11.65;;;2.40;;
78664;SDS011;67981;51.022;-2.870;2023-12-22T09:02:32;9.02;;;2.58;;
78664;SDS011;67981;51.022;-2.870;2023-12-22T09:04:58;7.35;;;2.28;;
78664;SDS011;67981;51.022;-2.870;2023-12-22T09:07:23;12.70;;;2.38;;
78664;SDS011;67981;51.022;-2.870;2023-12-22T09:09:49;7.55;;;2.17;;
78664;SDS011;67981;51.022;-2.870;2023-12-22T09:12:15;13.20;;;2.58;;
78664;SDS011;67981;51.022;-2.870;2023-12-22T09:14:41;9.85;;;3.03;;
78664;SDS011;67981;51.022;-2.870;2023-12-22T09:17:06;10.68;;;2.78;;
78664;SDS011;67981;51.022;-2.870;2023-12-22T09:19:32;12.60;;;2.70;;
78664;SDS011;67981;51.022;-2.870;2023-12-22T09:21:58;8.68;;;1.67;;
78664;SDS011;67981;51.022;-2.870;2023-12-22T09:24:24;10.13;;;2.78;;
78664;SDS011;67981;51.022;-2.870;2023-12-22T09:26:49;12.05;;;2.60;;
78664;SDS011;67981;51.022;-2.870;2023-12-22T09:29:16;18.52;;;3.45;;
78664;SDS011;67981;51.022;-2.870;2023-12-22T09:31:42;7.57;;;3.25;;
78664;SDS011;67981;51.022;-2.870;2023-12-22T09:34:07;6.00;;;2.60;;
78664;SDS011;67981;51.022;-2.870;2023-12-22T09:36:32;7.22;;;3.20;;
78664;SDS011;67981;51.022;-2.870;2023-12-22T09:38:58;8.48;;;2.17;;
78664;SDS011;67981;51.022;-2.870;2023-12-22T09:41:23;5.45;;;2.25;;
78664;SDS011;67981;51.022;-2.870;2023-12-22T09:43:49;8.43;;;2.80;;
78664;SDS011;67981;51.022;-2.870;2023-12-22T09:46:16;10.45;;;2.53;;
78664;SDS011;67981;51.022;-2.870;2023-12-22T09:48:43;8.95;;;2.65;;
78664;SDS011;67981;51.022;-2.870;2023-12-22T09:51:10;6.07;;;1.92;;
78664;SDS011;67981;51.022;-2.870;2023-12-22T09:53:40;11.70;;;2.70;;
78664;SDS011;67981;51.022;-2.870;2023-12-22T09:56:06;12.45;;;2.55;;
78664;SDS011;67981;51.022;-2.870;2023-12-22T09:58:33;10.55;;;2.10;;
78664;SDS011;67981;51.022;-2.870;2023-12-22T10:01:01;9.02;;;1.90;;
78664;SDS011;67981;51.022;-2.870;2023-12-22T10:03:30;10.68;;;2.63;;
78664;SDS011;67981;51.022;-2.870;2023-12-22T10:05:58;9.27;;;3.35;;
78664;SDS011;67981;51.022;-2.870;2023-12-22T10:08:23;12.18;;;2.22;;
78664;SDS011;67981;51.022;-2.870;2023-12-22T10:10:51;4.53;;;1.63;;
78664;SDS011;67981;51.022;-2.870;2023-12-22T10:13:17;11.30;;;2.65;;
78664;SDS011;67981;51.022;-2.870;2023-12-22T10:15:43;8.40;;;2.00;;
78664;SDS011;67981;51.022;-2.870;2023-12-22T10:18:10;5.95;;;1.95;;
78664;SDS011;67981;51.022;-2.870;2023-12-22T10:20:36;7.63;;;1.60;;
78664;SDS011;67981;51.022;-2.870;2023-12-22T10:23:01;7.97;;;1.55;;
78664;SDS011;67981;51.022;-2.870;2023-12-22T10:25:27;5.85;;;1.75;;
78664;SDS011;67981;51.022;-2.870;2023-12-22T10:27:57;4.20;;;1.30;;
78664;SDS011;67981;51.022;-2.870;2023-12-22T10:30:23;10.77;;;2.05;;
78664;SDS011;67981;51.022;-2.870;2023-12-22T10:35:17;7.63;;;1.83;;
78664;SDS011;67981;51.022;-2.870;2023-12-22T10:37:43;6.80;;;1.25;;
78664;SDS011;67981;51.022;-2.870;2023-12-22T10:40:11;7.72;;;1.60;;
78664;SDS011;67981;51.022;-2.870;2023-12-22T10:42:37;8.70;;;2.25;;
78664;SDS011;67981;51.022;-2.870;2023-12-22T10:45:03;7.95;;;2.17;;
78664;SDS011;67981;51.022;-2.870;2023-12-22T10:47:28;6.20;;;2.55;;
78664;SDS011;67981;51.022;-2.870;2023-12-22T10:49:54;7.97;;;1.50;;
78664;SDS011;67981;51.022;-2.870;2023-12-22T10:52:19;6.68;;;1.73;;
78664;SDS011;67981;51.022;-2.870;2023-12-22T10:54:48;4.80;;;1.63;;
78664;SDS011;67981;51.022;-2.870;2023-12-22T10:57:17;9.10;;;2.05;;
78664;SDS011;67981;51.022;-2.870;2023-12-22T10:59:45;2.17;;;0.93;;
78664;SDS011;67981;51.022;-2.870;2023-12-22T11:02:15;4.10;;;0.88;;
78664;SDS011;67981;51.022;-2.870;2023-12-22T11:04:43;6.10;;;1.13;;
78664;SDS011;67981;51.022;-2.870;2023-12-22T11:07:12;4.63;;;1.55;;
78664;SDS011;67981;51.022;-2.870;2023-12-22T11:09:39;5.95;;;1.95;;
78664;SDS011;67981;51.022;-2.870;2023-12-22T11:12:09;4.53;;;1.50;;
78664;SDS011;67981;51.022;-2.870;2023-12-22T11:14:36;5.15;;;2.00;;
78664;SDS011;67981;51.022;-2.870;2023-12-22T11:17:03;6.82;;;1.35;;
78664;SDS011;67981;51.022;-2.870;2023-12-22T11:19:30;5.68;;;1.38;;
78664;SDS011;67981;51.022;-2.870;2023-12-22T11:21:59;4.47;;;1.23;;
78664;SDS011;67981;51.022;-2.870;2023-12-22T11:24:26;5.20;;;1.42;;
78664;SDS011;67981;51.022;-2.870;2023-12-22T11:26:54;8.43;;;2.20;;
78664;SDS011;67981;51.022;-2.870;2023-12-22T11:29:23;10.73;;;1.90;;
78664;SDS011;67981;51.022;-2.870;2023-12-22T11:31:51;8.68;;;2.35;;
78664;SDS011;67981;51.022;-2.870;2023-12-22T11:34:20;8.05;;;1.90;;
78664;SDS011;67981;51.022;-2.870;2023-12-22T11:36:47;7.28;;;2.67;;
78664;SDS011;67981;51.022;-2.870;2023-12-22T11:39:13;6.32;;;2.55;;
78664;SDS011;67981;51.022;-2.870;2023-12-22T11:41:39;10.15;;;2.63;;
78664;SDS011;67981;51.022;-2.870;2023-12-22T11:44:06;5.03;;;1.20;;
78664;SDS011;67981;51.022;-2.870;2023-12-22T11:46:32;2.90;;;0.90;;
78664;SDS011;67981;51.022;-2.870;2023-12-22T11:48:59;7.85;;;1.30;;
78664;SDS011;67981;51.022;-2.870;2023-12-22T11:51:24;7.07;;;2.05;;
78664;SDS011;67981;51.022;-2.870;2023-12-22T11:53:57;6.25;;;1.60;;
78664;SDS011;67981;51.022;-2.870;2023-12-22T11:56:22;7.00;;;1.23;;
78664;SDS011;67981;51.022;-2.870;2023-12-22T11:58:49;6.85;;;1.17;;
78664;SDS011;67981;51.022;-2.870;2023-12-22T12:01:19;5.18;;;1.55;;
78664;SDS011;67981;51.022;-2.870;2023-12-22T12:06:15;3.88;;;1.50;;
78664;SDS011;67981;51.022;-2.870;2023-12-22T12:09:04;6.22;;;1.55;;
78664;SDS011;67981;51.022;-2.870;2023-12-22T12:14:16;4.68;;;2.03;;
78664;SDS011;67981;51.022;-2.870;2023-12-22T12:16:47;3.55;;;1.33;;
78664;SDS011;67981;51.022;-2.870;2023-12-22T12:19:13;5.80;;;1.10;;
78664;SDS011;67981;51.022;-2.870;2023-12-22T12:21:39;4.72;;;1.08;;
78664;SDS011;67981;51.022;-2.870;2023-12-22T12:24:05;6.10;;;2.17;;
78664;SDS011;67981;51.022;-2.870;2023-12-22T12:26:32;6.28;;;1.65;;
78664;SDS011;67981;51.022;-2.870;2023-12-22T12:28:58;6.90;;;1.30;;
78664;SDS011;67981;51.022;-2.870;2023-12-22T12:31:36;6.43;;;1.40;;
78664;SDS011;67981;51.022;-2.870;2023-12-22T12:34:06;5.57;;;1.40;;
78664;SDS011;67981;51.022;-2.870;2023-12-22T12:36:35;4.22;;;1.70;;
78664;SDS011;67981;51.022;-2.870;2023-12-22T12:39:05;7.32;;;2.08;;
78664;SDS011;67981;51.022;-2.870;2023-12-22T12:41:42;5.85;;;1.77;;
78664;SDS011;67981;51.022;-2.870;2023-12-22T12:44:11;6.72;;;2.22;;
78664;SDS011;67981;51.022;-2.870;2023-12-22T12:46:37;3.80;;;1.38;;
78664;SDS011;67981;51.022;-2.870;2023-12-22T12:49:08;8.18;;;1.65;;
78664;SDS011;67981;51.022;-2.870;2023-12-22T12:51:41;8.82;;;1.58;;
78664;SDS011;67981;51.022;-2.870;2023-12-22T12:54:07;5.40;;;1.20;;
78664;SDS011;67981;51.022;-2.870;2023-12-22T12:56:41;2.72;;;1.55;;
78664;SDS011;67981;51.022;-2.870;2023-12-22T12:59:12;5.03;;;1.40;;
78664;SDS011;67981;51.022;-2.870;2023-12-22T13:01:42;5.05;;;1.48;;
78664;SDS011;67981;51.022;-2.870;2023-12-22T13:04:08;7.75;;;1.73;;
78664;SDS011;67981;51.022;-2.870;2023-12-22T13:06:34;6.50;;;1.55;;
78664;SDS011;67981;51.022;-2.870;2023-12-22T13:08:59;4.50;;;1.27;;
78664;SDS011;67981;51.022;-2.870;2023-12-22T13:11:25;5.63;;;1.35;;
78664;SDS011;67981;51.022;-2.870;2023-12-22T13:13:52;3.30;;;1.20;;
78664;SDS011;67981;51.022;-2.870;2023-12-22T13:16:24;4.97;;;1.08;;
78664;SDS011;67981;51.022;-2.870;2023-12-22T13:18:51;4.90;;;1.05;;
78664;SDS011;67981;51.022;-2.870;2023-12-22T13:21:17;3.05;;;1.45;;
78664;SDS011;67981;51.022;-2.870;2023-12-22T13:23:43;4.88;;;2.05;;
78664;SDS011;67981;51.022;-2.870;2023-12-22T13:26:18;4.38;;;1.48;;
78664;SDS011;67981;51.022;-2.870;2023-12-22T13:28:44;5.65;;;1.40;;
78664;SDS011;67981;51.022;-2.870;2023-12-22T13:31:13;7.70;;;1.65;;
78664;SDS011;67981;51.022;-2.870;2023-12-22T13:33:39;4.03;;;1.73;;
78664;SDS011;67981;51.022;-2.870;2023-12-22T13:36:05;9.82;;;2.13;;
78664;SDS011;67981;51.022;-2.870;2023-12-22T13:38:31;6.60;;;1.55;;
78664;SDS011;67981;51.022;-2.870;2023-12-22T13:40:58;3.90;;;1.23;;
78664;SDS011;67981;51.022;-2.870;2023-12-22T13:43:29;9.00;;;1.85;;
78664;SDS011;67981;51.022;-2.870;2023-12-22T13:45:55;8.77;;;1.60;;
78664;SDS011;67981;51.022;-2.870;2023-12-22T13:48:21;6.35;;;1.60;;
78664;SDS011;67981;51.022;-2.870;2023-12-22T13:50:55;7.93;;;1.90;;
78664;SDS011;67981;51.022;-2.870;2023-12-22T13:53:22;3.58;;;1.52;;
78664;SDS011;67981;51.022;-2.870;2023-12-22T13:55:58;5.63;;;1.63;;
78664;SDS011;67981;51.022;-2.870;2023-12-22T13:58:24;3.28;;;1.60;;
78664;SDS011;67981;51.022;-2.870;2023-12-22T14:00:51;6.88;;;1.23;;
78664;SDS011;67981;51.022;-2.870;2023-12-22T14:03:17;3.20;;;1.15;;
78664;SDS011;67981;51.022;-2.870;2023-12-22T14:05:46;4.43;;;1.45;;
78664;SDS011;67981;51.022;-2.870;2023-12-22T14:08:12;4.47;;;1.88;;
78664;SDS011;67981;51.022;-2.870;2023-12-22T14:10:37;4.00;;;1.10;;
78664;SDS011;67981;51.022;-2.870;2023-12-22T14:13:12;4.20;;;0.75;;
78664;SDS011;67981;51.022;-2.870;2023-12-22T14:15:37;4.25;;;1.33;;
78664;SDS011;67981;51.022;-2.870;2023-12-22T14:18:03;3.15;;;1.30;;
78664;SDS011;67981;51.022;-2.870;2023-12-22T14:20:28;2.05;;;0.75;;
78664;SDS011;67981;51.022;-2.870;2023-12-22T14:22:54;0.98;;;0.65;;
78664;SDS011;67981;51.022;-2.870;2023-12-22T14:25:19;2.00;;;0.88;;
78664;SDS011;67981;51.022;-2.870;2023-12-22T14:27:45;4.07;;;1.58;;
78664;SDS011;67981;51.022;-2.870;2023-12-22T14:30:10;3.50;;;0.82;;
78664;SDS011;67981;51.022;-2.870;2023-12-22T14:32:36;4.50;;;1.77;;
78664;SDS011;67981;51.022;-2.870;2023-12-22T14:35:01;3.40;;;1.30;;
78664;SDS011;67981;51.022;-2.870;2023-12-22T14:37:27;2.45;;;1.10;;